SLLP/LPB METAR and TAF weather

Enter ICAO airport designator
Station Type Date Time Source
SLLP METAR 2024/04/17 19:00 UTC NOAA

SLLP 171900Z 05007KT 9999 FEW015 SCT070 BKN200 14/M07 Q1039


Station Type Date Time Source
SLLP Decoded METAR 2024/04/17 19:00 UTC NOAA

La Paz / Alto, Bolivia (SLLP) 16-31S 068-11W 4038M
Apr 17, 2024 - 03:00 PM EDT / 2024.04.17 1900 UTC
Wind: from the NE (050 degrees) at 8 MPH (7 KT):0
Visibility: greater than 7 mile(s):0
Sky conditions: mostly cloudy
Temperature: 57 F (14 C)
Dew Point: 19 F (-7 C)
Relative Humidity: 22%
Pressure (altimeter): 30.68 in. Hg (1039 hPa)
ob: SLLP 171900Z 05007KT 9999 FEW015 SCT070 BKN200 14/M07 Q1039
cycle: 19

Station Type Date Time Source
SLLP TAF 2024/04/17 18:09 UTC NOAA